Time;durP1;ratioP1;P1;durP2;ratioP2;P2;SDS_P1;SDS_P2;PMS_P1;PMS_P2;Temp;Humidity;BMP_temperature;BMP_pressure;BME280_temperature;BME280_humidity;BME280_pressure;Samples;Min_cycle;Max_cycle;Signal;HPM_P1;HPM_P2
2021/07/16 00:02:10;;;;;;;;;;;;;;;;;;;;;
2021/07/16 00:06:06;;;;;;;20.27;18.13;;;21.50;99.90;;;;;;4901131;29;20590;-86
2021/07/16 00:08:36;;;;;;;25.90;20.63;;;21.20;99.90;;;;;;4855952;29;20469;-87
2021/07/16 00:16:40;;;;;;;33.20;23.33;;;21.00;99.90;;;;;;4098649;26;20483;-86
2021/07/16 00:19:13;;;;;;;25.87;20.83;;;21.20;99.90;;;;;;4995916;28;20546;-86
2021/07/16 00:21:40;;;;;;;27.00;21.07;;;21.10;99.90;;;;;;4985652;28;20473;-86
2021/07/16 00:37:59;;;;;;;25.53;19.33;;;20.90;99.90;;;;;;4955296;29;20568;-87
2021/07/16 00:45:13;;;;;;;;;;;;;;;;;;;;;
2021/07/16 00:47:54;;;;;;;21.20;18.90;;;20.90;99.90;;;;;;4924102;28;20504;-85
2021/07/16 00:58:53;;;;;;;18.77;15.80;;;20.80;99.90;;;;;;4904401;29;20590;-87
2021/07/16 01:05:20;;;;;;;22.13;15.73;;;20.70;99.90;;;;;;4955224;28;20450;-87
2021/07/16 01:20:04;;;;;;;18.13;14.37;;;20.80;99.90;;;;;;4959318;29;20520;-87
2021/07/16 01:22:49;;;;;;;17.13;13.80;;;20.80;99.90;;;;;;4928279;29;20457;-87
2021/07/16 01:25:23;;;;;;;17.53;13.50;;;20.80;99.90;;;;;;4924038;29;20536;-87
2021/07/16 01:27:57;;;;;;;18.43;13.47;;;20.80;99.90;;;;;;4918473;29;20467;-86
2021/07/16 01:30:59;;;;;;;13.27;12.17;;;20.80;99.90;;;;;;4934776;29;20464;-86
2021/07/16 01:33:43;;;;;;;18.53;13.70;;;20.70;99.90;;;;;;4853660;29;21177;-87
2021/07/16 01:47:04;;;;;;;16.33;14.60;;;20.60;99.90;;;;;;4944874;28;20445;-86
2021/07/16 01:49:56;;;;;;;18.03;15.27;;;20.60;99.90;;;;;;4940304;29;20469;-85
2021/07/16 01:52:57;;;;;;;;;;;;;;;;;;;;;
2021/07/16 01:55:42;;;;;;;16.50;14.70;;;20.60;99.90;;;;;;5028207;28;20470;-86
2021/07/16 01:59:01;;;;;;;18.93;15.30;;;20.60;99.90;;;;;;4988447;28;20957;-86
2021/07/16 02:01:53;;;;;;;16.50;14.20;;;20.50;99.90;;;;;;4997454;28;20504;-86
2021/07/16 02:04:36;;;;;;;20.47;13.87;;;20.50;99.90;;;;;;4996858;28;20454;-87
2021/07/16 02:07:22;;;;;;;19.10;14.77;;;20.50;99.90;;;;;;5004266;28;20536;-85
2021/07/16 02:09:49;;;;;;;20.03;13.40;;;20.40;99.90;;;;;;4995769;28;20462;-84
2021/07/16 02:12:16;;;;;;;15.57;14.00;;;20.40;99.90;;;;;;5014499;28;20454;-86
2021/07/16 02:14:43;;;;;;;17.47;13.80;;;20.40;99.90;;;;;;5004512;28;20489;-85
2021/07/16 02:17:09;;;;;;;15.37;13.80;;;20.50;99.90;;;;;;5007725;28;20533;-86
2021/07/16 02:19:43;;;;;;;15.77;14.03;;;20.50;99.90;;;;;;5001285;28;20462;-86
2021/07/16 02:22:10;;;;;;;16.17;12.80;;;20.40;99.90;;;;;;5009117;28;20439;-85
2021/07/16 02:24:39;;;;;;;18.33;13.67;;;20.50;99.90;;;;;;5004586;28;21158;-85
2021/07/16 02:27:09;;;;;;;14.20;12.90;;;20.70;99.90;;;;;;4983163;28;20454;-86
2021/07/16 02:29:36;;;;;;;21.13;13.43;;;20.70;99.90;;;;;;4981823;28;20513;-86
2021/07/16 02:32:03;;;;;;;20.27;12.67;;;20.70;99.90;;;;;;5011866;28;20466;-86
2021/07/16 02:34:30;;;;;;;14.93;12.30;;;20.60;99.90;;;;;;5012093;28;20576;-86
2021/07/16 02:36:57;;;;;;;19.23;13.57;;;20.70;99.90;;;;;;4985205;28;20491;-86
2021/07/16 02:39:24;;;;;;;15.97;12.47;;;20.80;99.90;;;;;;5009652;28;20463;-85
2021/07/16 02:41:51;;;;;;;17.83;13.53;;;20.70;99.90;;;;;;4990270;28;20819;-86
2021/07/16 02:44:18;;;;;;;16.77;12.57;;;20.60;99.90;;;;;;4991402;28;20801;-86
2021/07/16 02:46:44;;;;;;;12.77;11.47;;;20.60;99.90;;;;;;5008652;28;20455;-86
2021/07/16 02:49:11;;;;;;;14.90;12.33;;;20.70;99.90;;;;;;4993021;28;20459;-86
2021/07/16 02:51:40;;;;;;;19.00;12.40;;;20.60;99.90;;;;;;4985251;28;20479;-87
2021/07/16 02:54:16;;;;;;;17.00;13.40;;;20.50;99.90;;;;;;5011212;28;20956;-86
2021/07/16 02:56:43;;;;;;;14.17;12.63;;;20.70;99.90;;;;;;5011082;28;20450;-86
2021/07/16 02:59:10;;;;;;;14.67;12.07;;;20.80;99.90;;;;;;4989469;28;21008;-85
2021/07/16 03:01:58;;;;;;;14.77;13.33;;;20.70;99.90;;;;;;5012529;28;20480;-86
2021/07/16 03:04:26;;;;;;;14.10;12.33;;;20.80;99.90;;;;;;5012760;28;20523;-86
2021/07/16 03:06:55;;;;;;;17.07;12.30;;;20.60;99.90;;;;;;5001587;28;20834;-86
2021/07/16 03:09:22;;;;;;;14.27;11.47;;;20.50;99.90;;;;;;4998969;28;20526;-86
2021/07/16 03:11:59;;;;;;;13.33;11.40;;;20.40;99.90;;;;;;4998668;28;20492;-86
2021/07/16 03:14:26;;;;;;;14.33;12.83;;;20.60;99.90;;;;;;5000213;28;20503;-87
2021/07/16 03:16:53;;;;;;;18.50;12.33;;;20.70;99.90;;;;;;5021581;28;20438;-85
2021/07/16 03:19:19;;;;;;;15.60;11.60;;;20.40;99.90;;;;;;5020210;28;20488;-86
2021/07/16 03:21:46;;;;;;;13.87;12.20;;;20.30;99.90;;;;;;5003868;28;20458;-85
2021/07/16 03:24:27;;;;;;;22.60;13.53;;;20.30;99.90;;;;;;4979294;28;20449;-86
2021/07/16 03:26:54;;;;;;;15.93;12.40;;;20.20;99.90;;;;;;5018368;28;20554;-86
2021/07/16 03:29:20;;;;;;;16.70;12.43;;;20.10;99.90;;;;;;5005418;28;20457;-86
2021/07/16 03:31:47;;;;;;;15.40;12.73;;;20.00;99.90;;;;;;5023473;28;20477;-86
2021/07/16 03:34:26;;;;;;;19.67;12.30;;;19.90;99.90;;;;;;5022204;28;20474;-85
2021/07/16 03:37:07;;;;;;;17.93;13.43;;;20.00;99.90;;;;;;4996727;28;20516;-85
2021/07/16 03:39:34;;;;;;;15.87;12.03;;;20.10;99.90;;;;;;5021941;28;20508;-85
2021/07/16 03:42:01;;;;;;;21.50;11.80;;;20.00;99.90;;;;;;5007831;28;20543;-87
2021/07/16 03:44:29;;;;;;;18.03;12.30;;;20.00;99.90;;;;;;5016012;28;20551;-87
2021/07/16 03:47:14;;;;;;;17.50;13.10;;;20.00;99.90;;;;;;5031148;28;20458;-87
2021/07/16 03:49:42;;;;;;;16.10;13.20;;;20.00;99.90;;;;;;5015465;28;20495;-87
2021/07/16 03:52:09;;;;;;;13.17;11.67;;;19.90;99.90;;;;;;5015531;28;21103;-87
2021/07/16 03:54:58;;;;;;;20.50;14.03;;;19.90;99.90;;;;;;4978380;28;21102;-86
2021/07/16 03:57:27;;;;;;;14.07;12.40;;;19.90;99.90;;;;;;4997597;28;20461;-86
2021/07/16 04:00:02;;;;;;;17.03;13.33;;;19.90;99.90;;;;;;4997148;28;20455;-86
2021/07/16 04:02:32;;;;;;;16.70;12.83;;;20.10;99.90;;;;;;4989501;28;20493;-87
2021/07/16 04:04:59;;;;;;;22.80;14.20;;;20.00;99.90;;;;;;5022364;28;20454;-86
2021/07/16 04:08:11;;;;;;;14.47;11.93;;;20.00;99.90;;;;;;5011162;28;20473;-84
2021/07/16 04:10:57;;;;;;;20.40;12.73;;;20.20;99.90;;;;;;4989918;28;20454;-85
2021/07/16 04:13:24;;;;;;;16.47;12.73;;;20.10;99.90;;;;;;5001352;28;20522;-86
2021/07/16 04:15:51;;;;;;;17.90;11.37;;;20.20;99.90;;;;;;5014408;28;20474;-86
2021/07/16 04:18:18;;;;;;;12.03;10.80;;;20.10;99.90;;;;;;5011561;28;20460;-85
2021/07/16 04:21:05;;;;;;;14.67;11.00;;;20.00;99.90;;;;;;4994350;28;20477;-85
2021/07/16 04:23:48;;;;;;;12.63;10.90;;;19.80;99.90;;;;;;4918036;29;20446;-86
2021/07/16 04:26:15;;;;;;;16.93;11.23;;;19.80;99.90;;;;;;4932523;29;20454;-84
2021/07/16 04:28:42;;;;;;;12.50;10.73;;;19.80;99.90;;;;;;4932542;29;20553;-85
2021/07/16 04:31:09;;;;;;;14.83;10.90;;;19.80;99.90;;;;;;4937490;29;20846;-86
2021/07/16 04:33:36;;;;;;;16.17;11.17;;;19.90;99.90;;;;;;4953841;29;20519;-85
2021/07/16 04:36:03;;;;;;;15.30;11.37;;;19.80;99.90;;;;;;4941910;29;20485;-86
2021/07/16 04:38:29;;;;;;;15.90;12.20;;;19.90;99.90;;;;;;4943768;29;20458;-86
2021/07/16 04:40:56;;;;;;;16.63;13.03;;;19.90;99.90;;;;;;4951138;29;20497;-84
2021/07/16 04:43:23;;;;;;;21.63;13.70;;;20.10;99.90;;;;;;4952526;29;20457;-86
2021/07/16 04:45:49;;;;;;;15.37;13.77;;;20.00;99.90;;;;;;4953839;29;20462;-85
2021/07/16 04:48:16;;;;;;;16.30;14.60;;;20.00;99.90;;;;;;4975276;28;20454;-84
2021/07/16 04:50:43;;;;;;;15.37;12.80;;;20.00;99.90;;;;;;4994083;28;20466;-85
2021/07/16 04:53:09;;;;;;;16.57;14.33;;;20.00;99.90;;;;;;4994248;28;20454;-85
2021/07/16 04:55:39;;;;;;;18.03;14.97;;;20.00;99.90;;;;;;4994482;28;20504;-86
2021/07/16 04:58:07;;;;;;;18.03;14.23;;;20.00;99.90;;;;;;5005212;28;20545;-85
2021/07/16 05:00:34;;;;;;;16.20;13.70;;;20.10;99.90;;;;;;5011695;28;20478;-85
2021/07/16 05:03:12;;;;;;;14.57;13.07;;;20.00;99.90;;;;;;5013003;28;20489;-87
2021/07/16 05:05:56;;;;;;;19.07;14.10;;;19.90;99.90;;;;;;4993691;28;20458;-85
2021/07/16 05:08:23;;;;;;;14.63;13.00;;;19.90;99.90;;;;;;5011598;28;20498;-85
2021/07/16 05:11:02;;;;;;;15.73;13.33;;;19.90;99.90;;;;;;4994951;28;20548;-88
2021/07/16 05:13:29;;;;;;;20.40;13.00;;;20.00;99.90;;;;;;4993507;28;20484;-85
2021/07/16 05:15:55;;;;;;;21.97;12.77;;;20.00;99.90;;;;;;5011109;28;20525;-84
2021/07/16 05:18:22;;;;;;;16.83;14.27;;;19.90;99.90;;;;;;4994948;28;20510;-85
2021/07/16 05:20:55;;;;;;;20.03;14.17;;;19.90;99.90;;;;;;5015089;28;20477;-85
2021/07/16 05:23:25;;;;;;;17.17;12.70;;;19.80;99.90;;;;;;4995158;28;20453;-86
2021/07/16 05:25:52;;;;;;;19.47;13.27;;;19.90;99.90;;;;;;4996722;28;20488;-85
2021/07/16 05:28:30;;;;;;;16.63;12.97;;;20.10;99.90;;;;;;5007242;28;20437;-85
2021/07/16 05:31:00;;;;;;;16.07;13.47;;;20.00;99.90;;;;;;5012110;28;20451;-87
2021/07/16 05:33:27;;;;;;;19.80;12.73;;;19.90;99.90;;;;;;5024873;28;20465;-86
2021/07/16 05:35:56;;;;;;;15.00;13.27;;;19.80;99.90;;;;;;5018541;28;20466;-87
2021/07/16 05:38:51;;;;;;;19.17;14.00;;;19.80;99.90;;;;;;5012492;28;20442;-85
2021/07/16 05:41:36;;;;;;;18.27;14.30;;;19.90;99.90;;;;;;4996115;28;20505;-84
2021/07/16 05:44:03;;;;;;;13.93;12.50;;;19.80;99.90;;;;;;5006569;28;20443;-85
2021/07/16 05:46:31;;;;;;;14.40;12.70;;;19.70;99.90;;;;;;5010737;28;20464;-86
2021/07/16 05:49:12;;;;;;;14.87;11.47;;;19.80;99.90;;;;;;5003149;28;20550;-86
2021/07/16 05:51:48;;;;;;;19.13;12.53;;;19.70;99.90;;;;;;4990310;28;20479;-86
2021/07/16 05:54:17;;;;;;;13.00;11.40;;;19.70;99.90;;;;;;4984321;28;20466;-85
2021/07/16 05:56:45;;;;;;;15.43;12.60;;;19.70;99.90;;;;;;5008333;28;21298;-85
2021/07/16 05:59:11;;;;;;;15.50;11.00;;;19.70;99.90;;;;;;5014374;28;20462;-86
2021/07/16 06:01:38;;;;;;;12.33;10.60;;;19.60;99.90;;;;;;5013020;28;20478;-86
2021/07/16 06:04:09;;;;;;;16.07;10.97;;;19.70;99.90;;;;;;5018987;28;20454;-85
2021/07/16 06:06:41;;;;;;;18.23;11.70;;;19.80;99.90;;;;;;5000254;28;20447;-86
2021/07/16 06:09:20;;;;;;;20.90;11.87;;;19.80;99.90;;;;;;5013084;28;20486;-86
2021/07/16 06:11:51;;;;;;;16.87;11.70;;;19.80;99.90;;;;;;4997475;28;20474;-86
2021/07/16 06:14:18;;;;;;;18.60;12.17;;;19.70;99.90;;;;;;5017598;28;20458;-86
2021/07/16 06:16:54;;;;;;;16.27;14.53;;;19.70;99.90;;;;;;4998039;28;20562;-85
2021/07/16 06:19:22;;;;;;;15.37;11.50;;;19.60;99.90;;;;;;5008658;28;20489;-86
2021/07/16 06:21:49;;;;;;;17.60;11.40;;;19.60;99.90;;;;;;5006881;28;20487;-88
2021/07/16 06:24:16;;;;;;;16.87;12.00;;;19.50;99.90;;;;;;5015117;28;20960;-87
2021/07/16 06:26:43;;;;;;;19.00;13.23;;;19.60;99.90;;;;;;5007208;28;20454;-85
2021/07/16 06:29:10;;;;;;;18.57;11.77;;;19.70;99.90;;;;;;5000864;28;20455;-86
2021/07/16 06:31:37;;;;;;;13.83;11.30;;;19.80;99.90;;;;;;5021514;28;20496;-87
2021/07/16 06:34:04;;;;;;;18.90;13.30;;;19.60;99.90;;;;;;5001460;28;20478;-86
2021/07/16 06:36:30;;;;;;;15.63;11.43;;;19.50;99.90;;;;;;5016823;28;20965;-86
2021/07/16 06:38:57;;;;;;;14.07;11.47;;;19.50;99.90;;;;;;4991647;28;20506;-86
2021/07/16 06:41:24;;;;;;;18.13;11.20;;;19.50;99.90;;;;;;4998119;28;20580;-85
2021/07/16 06:43:51;;;;;;;18.93;12.17;;;19.50;99.90;;;;;;4999729;28;20991;-85
2021/07/16 06:46:38;;;;;;;19.57;15.20;;;19.40;99.90;;;;;;4991765;28;20455;-86
2021/07/16 06:49:12;;;;;;;19.80;15.13;;;19.60;99.90;;;;;;4989868;28;20478;-86
2021/07/16 06:51:38;;;;;;;18.73;16.77;;;19.50;99.90;;;;;;5001098;28;20475;-85
2021/07/16 06:54:05;;;;;;;20.87;16.60;;;19.80;99.90;;;;;;5005386;28;20422;-87
2021/07/16 06:56:35;;;;;;;18.93;15.47;;;20.10;99.90;;;;;;5003322;28;20477;-87
2021/07/16 06:59:04;;;;;;;15.00;13.40;;;19.90;99.90;;;;;;5019068;28;20450;-86
2021/07/16 07:01:31;;;;;;;18.47;13.80;;;19.60;99.90;;;;;;5000092;28;20508;-86
2021/07/16 07:04:11;;;;;;;22.43;12.20;;;19.50;99.90;;;;;;5012376;28;20461;-89
2021/07/16 07:06:57;;;;;;;17.93;11.93;;;19.60;99.90;;;;;;4994535;28;20437;-86
2021/07/16 07:09:42;;;;;;;16.80;12.63;;;19.50;99.90;;;;;;5015492;28;21269;-84
2021/07/16 07:12:39;;;;;;;17.70;12.87;;;19.60;99.90;;;;;;5002854;28;20965;-85
2021/07/16 07:15:35;;;;;;;22.20;15.40;;;19.60;99.90;;;;;;4999317;28;20513;-86
2021/07/16 07:18:29;;;;;;;17.00;13.73;;;19.50;99.90;;;;;;4993476;28;20820;-86
2021/07/16 07:21:08;;;;;;;20.43;14.87;;;19.70;99.90;;;;;;4985603;28;20474;-85
2021/07/16 07:23:56;;;;;;;19.17;15.87;;;19.70;99.90;;;;;;5010778;28;20458;-85
2021/07/16 07:26:23;;;;;;;19.57;16.00;;;19.80;99.90;;;;;;5008563;28;20481;-85
2021/07/16 07:28:52;;;;;;;16.77;15.07;;;19.90;99.90;;;;;;5011390;28;20461;-85
2021/07/16 07:31:20;;;;;;;19.40;16.40;;;19.90;99.90;;;;;;4991949;28;20470;-86
2021/07/16 07:34:28;;;;;;;;;;;;;;;;;;;;;
2021/07/16 07:37:16;;;;;;;21.03;13.77;;;19.80;99.90;;;;;;5016605;28;20548;-85
2021/07/16 07:39:56;;;;;;;16.03;14.50;;;20.10;99.90;;;;;;5001441;28;20514;-86
2021/07/16 07:42:35;;;;;;;20.60;16.37;;;20.20;99.90;;;;;;5000369;28;20557;-85
2021/07/16 07:45:18;;;;;;;20.40;15.57;;;20.20;99.90;;;;;;5007696;28;20455;-86
2021/07/16 07:47:57;;;;;;;19.27;14.87;;;20.00;99.90;;;;;;4996106;28;20524;-87
2021/07/16 07:50:33;;;;;;;17.90;15.87;;;20.00;99.90;;;;;;4996837;28;20548;-86
2021/07/16 07:53:02;;;;;;;21.27;17.00;;;20.10;99.90;;;;;;4980836;28;20816;-86
2021/07/16 07:55:44;;;;;;;20.10;16.30;;;20.20;99.90;;;;;;5009762;28;21094;-86
2021/07/16 07:58:17;;;;;;;23.77;18.90;;;20.10;99.90;;;;;;5015542;28;20470;-87
2021/07/16 08:01:03;;;;;;;26.03;22.20;;;20.20;99.90;;;;;;5001154;28;20857;-87
2021/07/16 08:03:42;;;;;;;24.80;20.33;;;20.30;99.90;;;;;;4994171;28;20451;-85
2021/07/16 08:06:21;;;;;;;22.83;20.60;;;20.30;99.90;;;;;;4994627;28;20542;-86
2021/07/16 08:09:04;;;;;;;24.37;20.90;;;20.40;99.90;;;;;;4990078;28;21080;-86
2021/07/16 08:11:34;;;;;;;27.93;21.33;;;19.90;99.90;;;;;;5001411;28;20475;-85
2021/07/16 08:14:19;;;;;;;28.30;22.30;;;19.90;99.90;;;;;;5003492;28;20541;-86
2021/07/16 08:16:49;;;;;;;23.00;19.90;;;20.10;99.90;;;;;;5010196;28;20474;-86
2021/07/16 08:19:23;;;;;;;25.60;21.07;;;19.90;99.90;;;;;;5004275;28;20498;-87
2021/07/16 08:22:04;;;;;;;22.77;19.70;;;19.70;99.90;;;;;;4984039;28;20473;-86
2021/07/16 08:24:38;;;;;;;26.07;21.83;;;19.60;99.90;;;;;;4978057;28;20456;-86
2021/07/16 08:27:33;;;;;;;27.07;21.73;;;20.10;99.90;;;;;;4978371;28;20975;-86
2021/07/16 08:30:14;;;;;;;26.97;22.53;;;20.00;99.90;;;;;;5001295;28;20512;-85
2021/07/16 08:32:49;;;;;;;27.53;21.30;;;19.70;99.90;;;;;;4994014;28;20534;-85
2021/07/16 08:35:23;;;;;;;24.63;21.03;;;19.70;99.90;;;;;;4990961;28;21070;-85
2021/07/16 08:38:13;;;;;;;27.00;22.70;;;19.70;99.90;;;;;;4987686;28;20451;-87
2021/07/16 08:40:54;;;;;;;27.57;21.87;;;19.90;99.90;;;;;;5003461;28;21270;-86
2021/07/16 08:43:27;;;;;;;23.07;20.50;;;19.70;99.90;;;;;;5021094;28;20525;-87
2021/07/16 08:46:00;;;;;;;27.27;20.77;;;19.70;99.90;;;;;;5017034;28;20518;-87
2021/07/16 08:48:31;;;;;;;24.70;20.70;;;19.90;99.90;;;;;;5027271;28;20465;-87
2021/07/16 08:51:12;;;;;;;22.60;20.30;;;19.80;99.90;;;;;;4989246;28;20462;-86
2021/07/16 08:53:39;;;;;;;27.57;21.37;;;19.80;99.90;;;;;;5021029;28;20454;-88
2021/07/16 08:56:06;;;;;;;22.70;20.00;;;19.80;99.90;;;;;;5021675;28;20586;-86
2021/07/16 08:58:36;;;;;;;20.83;18.70;;;19.80;99.90;;;;;;5022406;28;20500;-88
2021/07/16 09:01:16;;;;;;;23.53;19.50;;;20.00;99.90;;;;;;5010734;28;20467;-86
2021/07/16 09:04:31;;;;;;;22.63;20.27;;;20.30;99.90;;;;;;4998758;28;20456;-86
2021/07/16 09:06:59;;;;;;;21.70;18.57;;;20.10;99.90;;;;;;5008240;28;20466;-85
2021/07/16 09:09:55;;;;;;;21.87;19.77;;;20.20;99.90;;;;;;5015690;28;20557;-86
2021/07/16 09:12:34;;;;;;;22.73;19.27;;;20.00;99.90;;;;;;5000110;28;20450;-85
2021/07/16 09:15:07;;;;;;;21.13;19.17;;;20.20;99.90;;;;;;4998985;28;20462;-86
2021/07/16 09:17:36;;;;;;;22.67;20.47;;;20.10;99.90;;;;;;4997027;28;20763;-86
2021/07/16 09:20:03;;;;;;;21.73;19.40;;;20.00;99.90;;;;;;5000783;28;20453;-86
2021/07/16 09:22:34;;;;;;;21.00;18.87;;;19.90;99.90;;;;;;5010779;28;20450;-86
2021/07/16 09:25:11;;;;;;;21.10;18.80;;;20.10;99.90;;;;;;5002883;28;20450;-87
2021/07/16 09:27:43;;;;;;;20.40;18.27;;;20.30;99.90;;;;;;5018653;28;20457;-86
2021/07/16 09:30:24;;;;;;;20.07;18.13;;;20.40;99.90;;;;;;5020834;28;20520;-89
2021/07/16 09:33:04;;;;;;;21.00;18.83;;;20.70;99.90;;;;;;5005921;28;20466;-87
2021/07/16 09:35:53;;;;;;;21.60;18.73;;;20.90;99.90;;;;;;4999234;28;20485;-87
2021/07/16 09:38:29;;;;;;;20.13;18.13;;;21.00;99.90;;;;;;5012124;28;20529;-86
2021/07/16 09:40:57;;;;;;;20.40;18.23;;;21.10;99.90;;;;;;4994994;28;20474;-85
2021/07/16 09:43:26;;;;;;;21.50;17.77;;;20.80;99.90;;;;;;5008953;28;20544;-86
2021/07/16 09:46:04;;;;;;;21.63;18.93;;;20.60;99.90;;;;;;5029287;28;20944;-86
2021/07/16 09:48:38;;;;;;;22.00;17.57;;;20.80;99.90;;;;;;4999967;28;20461;-88
2021/07/16 09:51:27;;;;;;;21.07;16.80;;;20.90;99.90;;;;;;5014908;28;20488;-86
2021/07/16 09:54:06;;;;;;;18.97;16.90;;;20.70;99.90;;;;;;5008798;28;20460;-85
2021/07/16 09:56:52;;;;;;;20.87;18.77;;;20.70;99.90;;;;;;5015202;28;20472;-87
2021/07/16 09:59:36;;;;;;;21.60;18.03;;;20.70;99.90;;;;;;5001285;28;21334;-87
2021/07/16 10:02:11;;;;;;;18.00;16.30;;;20.50;99.90;;;;;;5008252;28;20473;-87
2021/07/16 10:05:36;;;;;;;19.80;17.70;;;20.40;99.90;;;;;;4993764;28;20469;-87
2021/07/16 10:08:11;;;;;;;21.07;19.10;;;20.50;99.90;;;;;;5005443;28;20461;-87
2021/07/16 10:13:43;;;;;;;19.67;17.10;;;20.40;99.90;;;;;;5009757;28;20518;-88
2021/07/16 10:16:10;;;;;;;19.87;17.87;;;20.90;99.90;;;;;;5018673;28;20517;-86
2021/07/16 10:18:38;;;;;;;22.33;18.60;;;21.00;99.90;;;;;;5017895;28;20458;-86
2021/07/16 10:21:05;;;;;;;19.37;17.30;;;20.80;99.90;;;;;;4990939;28;20470;-86
2021/07/16 10:23:33;;;;;;;19.67;17.20;;;20.60;99.90;;;;;;5014774;28;20450;-86
2021/07/16 10:26:01;;;;;;;21.33;19.03;;;20.50;99.90;;;;;;5009308;28;20455;-85
2021/07/16 10:28:35;;;;;;;20.50;18.40;;;20.90;99.90;;;;;;4996232;28;20454;-86
2021/07/16 10:31:02;;;;;;;19.13;16.90;;;20.90;99.90;;;;;;5003963;28;20523;-85
2021/07/16 10:33:38;;;;;;;20.40;17.77;;;20.70;99.90;;;;;;5002106;28;20470;-88
2021/07/16 10:36:46;;;;;;;17.70;16.00;;;20.50;99.90;;;;;;4985262;28;20478;-85
2021/07/16 10:40:33;;;;;;;16.67;15.03;;;20.50;99.90;;;;;;4906148;29;20447;-86
2021/07/16 10:43:28;;;;;;;15.30;13.70;;;20.70;99.90;;;;;;4884242;29;20583;-87
2021/07/16 10:46:43;;;;;;;17.80;13.27;;;21.20;99.90;;;;;;4914008;29;20461;-85
2021/07/16 10:49:33;;;;;;;15.93;14.03;;;21.00;99.90;;;;;;4909907;29;20435;-87
2021/07/16 10:52:52;;;;;;;18.37;14.53;;;20.90;99.90;;;;;;4916452;29;20486;-84
2021/07/16 10:55:37;;;;;;;16.83;13.90;;;20.80;99.90;;;;;;4920750;29;20463;-86
2021/07/16 10:58:46;;;;;;;15.63;13.90;;;21.50;99.90;;;;;;4937716;29;20462;-86
2021/07/16 11:05:00;;;;;;;21.93;18.10;;;21.10;99.90;;;;;;5015452;28;20582;-89
2021/07/16 11:08:26;;;;;;;19.70;15.80;;;21.40;99.90;;;;;;5022184;28;20424;-87
2021/07/16 11:11:54;;;;;;;22.57;17.33;;;21.40;99.90;;;;;;4990636;28;20477;-86
2021/07/16 11:14:44;;;;;;;19.37;17.40;;;21.60;99.60;;;;;;4990363;28;20453;-85
2021/07/16 11:17:42;;;;;;;19.00;16.73;;;21.60;99.50;;;;;;5016164;28;20513;-88
2021/07/16 11:20:35;;;;;;;17.30;15.50;;;21.60;99.80;;;;;;5017027;28;20461;-87
2021/07/16 11:23:42;;;;;;;14.47;12.60;;;21.40;99.60;;;;;;4957547;28;20457;-86
2021/07/16 11:26:21;;;;;;;12.43;11.03;;;21.40;99.80;;;;;;4973456;28;20776;-85
2021/07/16 11:29:38;;;;;;;11.27;9.60;;;21.70;99.50;;;;;;4934783;29;20444;-86
2021/07/16 11:32:44;;;;;;;11.20;8.20;;;21.90;98.40;;;;;;4921802;29;20448;-84
2021/07/16 11:36:08;;;;;;;9.10;7.93;;;21.90;98.30;;;;;;4958790;29;20488;-89
2021/07/16 11:38:53;;;;;;;9.60;8.30;;;22.20;98.10;;;;;;4947323;29;20450;-85
2021/07/16 11:41:37;;;;;;;10.87;7.90;;;22.10;97.40;;;;;;4956621;29;20454;-87
2021/07/16 11:45:17;;;;;;;8.27;7.47;;;22.40;96.80;;;;;;4945803;29;20473;-86
2021/07/16 11:48:24;;;;;;;11.07;8.00;;;22.60;96.40;;;;;;4905268;29;20479;-86
2021/07/16 11:51:37;;;;;;;14.30;8.00;;;22.70;95.80;;;;;;5044289;23;20499;-85
2021/07/16 11:58:40;;;;;;;;;;;;;;;;;;;;;
2021/07/16 12:01:31;;;;;;;8.20;6.77;;;22.80;95.30;;;;;;4969348;28;20512;-85
2021/07/16 12:03:58;;;;;;;11.23;7.27;;;22.60;95.80;;;;;;4999983;28;20456;-85
2021/07/16 12:06:24;;;;;;;9.77;6.67;;;22.50;95.90;;;;;;5020796;28;20481;-85
2021/07/16 12:08:51;;;;;;;8.60;6.40;;;22.40;95.90;;;;;;5000178;28;20470;-86
2021/07/16 12:11:18;;;;;;;8.23;6.13;;;22.30;96.20;;;;;;5004066;28;20538;-86
2021/07/16 12:13:58;;;;;;;8.83;5.60;;;22.30;96.60;;;;;;5027032;28;20469;-87
2021/07/16 12:16:26;;;;;;;11.30;6.30;;;22.10;96.60;;;;;;5027694;28;20478;-86
2021/07/16 12:18:54;;;;;;;8.90;5.47;;;21.90;97.00;;;;;;5015095;28;20490;-87
2021/07/16 12:21:21;;;;;;;9.90;6.67;;;22.00;97.30;;;;;;4998494;28;20501;-87
2021/07/16 12:23:50;;;;;;;9.47;6.00;;;22.10;97.40;;;;;;4991063;28;20444;-86
2021/07/16 12:26:34;;;;;;;7.93;7.13;;;22.10;96.90;;;;;;5007474;28;20508;-87
2021/07/16 12:29:34;;;;;;;10.67;6.80;;;22.00;96.90;;;;;;5005921;28;20446;-85
2021/07/16 12:32:25;;;;;;;8.13;6.77;;;21.90;96.80;;;;;;4960962;29;20488;-84
2021/07/16 12:35:28;;;;;;;10.20;7.67;;;21.90;96.60;;;;;;4947684;29;20479;-84
2021/07/16 12:38:04;;;;;;;7.43;6.27;;;21.80;97.10;;;;;;4948406;29;20485;-85
2021/07/16 12:40:32;;;;;;;12.53;6.77;;;21.80;97.20;;;;;;4933939;29;20478;-85
2021/07/16 12:43:39;;;;;;;12.13;6.47;;;21.80;97.10;;;;;;4959414;29;20464;-86
2021/07/16 12:59:31;;;;;;;8.07;5.70;;;21.70;97.70;;;;;;4968889;28;20454;-85
2021/07/16 13:02:05;;;;;;;7.90;5.93;;;21.60;98.00;;;;;;4996284;28;20482;-86
2021/07/16 13:08:34;;;;;;;11.53;6.70;;;21.60;98.40;;;;;;4917975;29;20430;-85
2021/07/16 13:11:10;;;;;;;13.03;6.77;;;22.40;96.80;;;;;;4931320;29;20493;-85
2021/07/16 13:13:40;;;;;;;11.20;7.30;;;22.00;96.70;;;;;;4923658;29;20455;-85
2021/07/16 13:16:12;;;;;;;13.27;7.17;;;21.80;97.00;;;;;;4913070;29;20456;-86
2021/07/16 13:18:46;;;;;;;14.73;8.27;;;21.90;97.40;;;;;;4922751;29;21059;-86
2021/07/16 13:21:14;;;;;;;8.17;6.50;;;21.80;97.40;;;;;;4928919;29;20502;-85
2021/07/16 13:23:43;;;;;;;10.23;6.47;;;21.80;97.40;;;;;;4914557;29;20448;-86
2021/07/16 13:26:12;;;;;;;8.07;6.20;;;21.80;97.60;;;;;;4923510;29;20554;-85
2021/07/16 13:29:21;;;;;;;12.53;6.53;;;21.90;97.50;;;;;;4892706;29;20432;-86
2021/07/16 13:55:20;;;;;;;11.20;6.20;;;22.00;97.70;;;;;;4876717;29;20458;-86
2021/07/16 13:58:20;;;;;;;9.30;6.90;;;22.00;97.00;;;;;;4779638;29;20551;-86
2021/07/16 14:01:52;;;;;;;11.90;7.23;;;22.30;96.40;;;;;;4762763;30;20528;-87
2021/07/16 14:04:38;;;;;;;8.00;6.73;;;22.10;96.70;;;;;;4770852;30;20495;-86
2021/07/16 14:07:19;;;;;;;15.23;7.43;;;21.90;97.10;;;;;;4793053;29;20865;-86
2021/07/16 14:09:54;;;;;;;14.50;7.77;;;22.00;97.10;;;;;;4860041;29;20541;-84
2021/07/16 14:15:57;;;;;;;13.10;6.43;;;21.90;97.10;;;;;;4900583;29;20589;-87
2021/07/16 14:18:24;;;;;;;11.30;6.23;;;21.80;97.00;;;;;;4932260;29;20474;-84
2021/07/16 14:21:40;;;;;;;11.67;7.13;;;21.80;97.20;;;;;;4912268;29;20470;-86
2021/07/16 14:24:21;;;;;;;12.47;6.90;;;22.00;97.40;;;;;;4911706;29;20477;-85
2021/07/16 14:26:53;;;;;;;13.83;6.93;;;22.20;97.20;;;;;;4923124;29;20529;-86
2021/07/16 14:30:03;;;;;;;;;;;;;;;;;;;;;
2021/07/16 14:32:44;;;;;;;18.80;6.77;;;22.40;96.30;;;;;;4924865;29;20485;-87
2021/07/16 14:35:12;;;;;;;11.40;6.50;;;22.20;96.50;;;;;;4940939;29;20855;-86
2021/07/16 14:41:16;;;;;;;12.63;6.90;;;22.40;96.30;;;;;;4934852;29;20462;-84
2021/07/16 14:43:45;;;;;;;9.90;6.10;;;22.40;96.60;;;;;;5013068;28;20440;-84
2021/07/16 14:46:12;;;;;;;12.30;5.77;;;22.20;96.80;;;;;;5010276;28;20683;-85
2021/07/16 14:48:38;;;;;;;13.63;6.20;;;22.10;96.90;;;;;;4995227;28;20449;-86
2021/07/16 14:51:05;;;;;;;11.77;6.10;;;22.20;97.00;;;;;;5012575;28;20471;-86
2021/07/16 14:53:32;;;;;;;13.93;5.93;;;22.20;96.90;;;;;;5019928;28;21175;-87
2021/07/16 14:59:05;;;;;;;10.43;6.20;;;22.10;96.90;;;;;;5016659;28;20430;-86
2021/07/16 15:01:32;;;;;;;9.53;5.70;;;22.20;96.80;;;;;;5020616;28;20466;-87
2021/07/16 15:03:59;;;;;;;20.50;6.90;;;22.20;96.60;;;;;;5024259;28;20513;-87
2021/07/16 15:06:28;;;;;;;11.50;6.13;;;22.30;96.70;;;;;;4998911;28;21083;-86
2021/07/16 15:09:46;;;;;;;11.40;6.50;;;22.60;95.90;;;;;;4950253;28;20844;-87
2021/07/16 15:12:36;;;;;;;11.43;5.23;;;22.40;96.20;;;;;;5063720;23;20496;-87
2021/07/16 15:15:51;;;;;;;11.40;6.13;;;22.50;96.10;;;;;;4996747;28;20450;-87
2021/07/16 15:18:36;;;;;;;11.23;6.10;;;22.20;95.90;;;;;;4996731;28;20465;-86
2021/07/16 15:21:03;;;;;;;10.00;5.83;;;22.00;96.30;;;;;;5007110;28;20476;-87
2021/07/16 15:23:42;;;;;;;13.30;6.70;;;21.90;96.70;;;;;;4980430;28;20685;-87
2021/07/16 15:26:25;;;;;;;11.70;6.30;;;22.40;96.10;;;;;;4985461;28;20439;-86
2021/07/16 15:28:55;;;;;;;10.20;6.70;;;22.50;96.20;;;;;;4985005;28;20757;-86
2021/07/16 15:31:24;;;;;;;10.23;8.03;;;22.60;96.00;;;;;;4980386;28;20571;-86
2021/07/16 15:33:51;;;;;;;16.20;7.70;;;22.80;95.80;;;;;;4997179;28;20447;-84
2021/07/16 15:36:18;;;;;;;10.23;7.70;;;23.00;95.40;;;;;;5001810;28;20455;-86